createdAt,value
2019-04-30T00:01:18.856Z,99.90
2019-04-30T00:03:50.560Z,99.90
2019-04-30T00:06:18.544Z,99.90
2019-04-30T00:08:46.947Z,99.90
2019-04-30T00:11:19.285Z,99.90
2019-04-30T00:13:45.825Z,99.90
2019-04-30T00:16:12.306Z,99.90
2019-04-30T00:18:54.861Z,99.90
2019-04-30T00:21:10.008Z,99.90
2019-04-30T00:23:37.878Z,99.90
2019-04-30T00:26:10.276Z,99.90
2019-04-30T00:28:35.391Z,99.90
2019-04-30T00:31:05.153Z,99.90
2019-04-30T00:33:31.699Z,99.90
2019-04-30T00:36:00.276Z,99.90
2019-04-30T00:38:29.589Z,99.90
2019-04-30T00:40:57.708Z,99.90
2019-04-30T00:43:25.628Z,99.90
2019-04-30T00:45:55.178Z,99.90
2019-04-30T00:48:27.869Z,99.90
2019-04-30T00:50:50.880Z,99.90
2019-04-30T00:53:19.199Z,99.90
2019-04-30T00:55:48.584Z,99.90
2019-04-30T00:58:17.758Z,99.90
2019-04-30T01:00:48.968Z,99.90
2019-04-30T01:03:20.445Z,99.90
2019-04-30T01:05:49.077Z,99.90
2019-04-30T01:08:21.128Z,99.90
2019-04-30T01:10:46.110Z,99.90
2019-04-30T01:13:14.410Z,99.90
2019-04-30T01:15:44.030Z,99.90
2019-04-30T01:18:11.488Z,99.90
2019-04-30T01:20:40.689Z,99.90
2019-04-30T01:23:11.304Z,99.90
2019-04-30T01:25:38.761Z,99.90
2019-04-30T01:28:05.420Z,99.90
2019-04-30T01:30:33.985Z,99.90
2019-04-30T01:33:02.304Z,99.90
2019-04-30T01:35:32.656Z,99.90
2019-04-30T01:37:59.566Z,99.90
2019-04-30T01:40:28.526Z,99.90
2019-04-30T01:42:55.771Z,99.90
2019-04-30T01:45:28.242Z,99.90
2019-04-30T01:47:52.742Z,99.90
2019-04-30T01:50:21.129Z,99.90
2019-04-30T01:52:53.347Z,99.90
2019-04-30T01:57:33.069Z,99.90
2019-04-30T02:00:36.621Z,99.90
2019-04-30T02:03:05.333Z,99.90
2019-04-30T02:05:33.691Z,99.90
2019-04-30T02:08:02.012Z,99.90
2019-04-30T02:10:30.594Z,99.90
2019-04-30T02:12:59.210Z,99.90
2019-04-30T02:15:29.135Z,99.90
2019-04-30T02:17:55.940Z,99.90
2019-04-30T02:20:24.376Z,99.90
2019-04-30T02:22:52.881Z,99.90
2019-04-30T02:25:21.265Z,99.90
2019-04-30T02:27:49.833Z,99.90
2019-04-30T02:30:20.853Z,99.90
2019-04-30T02:32:49.629Z,99.90
2019-04-30T02:35:20.626Z,99.90
2019-04-30T02:38:22.764Z,99.90
2019-04-30T02:40:51.401Z,99.90
2019-04-30T02:43:20.337Z,99.90
2019-04-30T02:45:49.816Z,99.90
2019-04-30T02:48:19.288Z,99.90
2019-04-30T02:50:45.625Z,99.90
2019-04-30T02:53:25.488Z,99.90
2019-04-30T02:55:53.901Z,99.90
2019-04-30T02:58:22.551Z,99.90
2019-04-30T03:00:51.775Z,99.90
2019-04-30T03:03:20.543Z,99.90
2019-04-30T03:05:49.713Z,99.90
2019-04-30T03:08:19.919Z,99.90
2019-04-30T03:10:45.524Z,99.90
2019-04-30T03:13:13.893Z,99.90
2019-04-30T03:15:42.437Z,99.90
2019-04-30T03:18:14.983Z,99.90
2019-04-30T03:21:19.192Z,99.90
2019-04-30T03:23:50.125Z,99.90
2019-04-30T03:26:15.728Z,99.90
2019-04-30T03:28:44.121Z,99.90
2019-04-30T03:31:12.829Z,99.90
2019-04-30T03:33:42.312Z,99.90
2019-04-30T03:36:12.304Z,99.90
2019-04-30T03:38:39.713Z,99.90
2019-04-30T03:41:09.637Z,99.90
2019-04-30T03:43:35.150Z,99.90
2019-04-30T03:46:03.846Z,99.90
2019-04-30T03:48:32.226Z,99.90
2019-04-30T03:51:01.238Z,99.90
2019-04-30T03:53:29.839Z,99.90
2019-04-30T03:55:57.221Z,99.90
2019-04-30T03:58:25.505Z,99.90
2019-04-30T04:01:01.177Z,99.90
2019-04-30T04:03:30.340Z,99.90
2019-04-30T04:06:04.067Z,99.90
2019-04-30T04:08:43.143Z,99.90
2019-04-30T04:11:12.245Z,99.90
2019-04-30T04:13:40.656Z,99.90
2019-04-30T04:16:09.659Z,99.90
2019-04-30T04:18:40.027Z,99.90
2019-04-30T04:21:11.550Z,99.90
2019-04-30T04:23:34.864Z,99.90
2019-04-30T04:26:03.234Z,99.90
2019-04-30T04:28:31.577Z,99.90
2019-04-30T04:31:00.259Z,99.90
2019-04-30T04:33:29.686Z,99.90
2019-04-30T04:35:59.578Z,99.90
2019-04-30T04:38:25.217Z,99.90
2019-04-30T04:40:53.523Z,99.90
2019-04-30T04:43:21.879Z,99.90
2019-04-30T04:45:50.307Z,99.30
2019-04-30T04:48:19.805Z,95.20
2019-04-30T04:50:49.508Z,97.30
2019-04-30T04:53:15.798Z,97.80
2019-04-30T04:55:44.147Z,96.90
2019-04-30T04:58:13.017Z,97.40
2019-04-30T05:00:40.927Z,98.30
2019-04-30T05:03:13.435Z,97.80
2019-04-30T05:05:42.004Z,97.70
2019-04-30T05:08:10.299Z,98.40
2019-04-30T05:10:39.190Z,98.20
2019-04-30T05:13:09.075Z,99.90
2019-04-30T05:15:35.660Z,99.80
2019-04-30T05:18:04.035Z,99.90
2019-04-30T05:20:32.395Z,99.90
2019-04-30T05:23:00.757Z,99.90
2019-04-30T05:25:29.571Z,95.80
2019-04-30T05:27:58.719Z,95.10
2019-04-30T05:30:25.830Z,94.90
2019-04-30T05:32:54.144Z,96.60
2019-04-30T05:35:22.521Z,96.70
2019-04-30T05:37:51.092Z,95.30
2019-04-30T05:40:19.579Z,94.20
2019-04-30T05:42:49.467Z,92.80
2019-04-30T05:45:16.355Z,93.80
2019-04-30T05:47:44.716Z,94.20
2019-04-30T05:50:13.445Z,94.30
2019-04-30T05:52:41.745Z,94.30
2019-04-30T05:55:10.082Z,94.10
2019-04-30T05:57:47.230Z,94.20
2019-04-30T06:00:07.170Z,94.20
2019-04-30T06:02:35.506Z,94.30
2019-04-30T06:05:03.920Z,94.80
2019-04-30T06:07:32.298Z,94.10
2019-04-30T06:10:06.593Z,93.10
2019-04-30T06:13:06.364Z,92.30
2019-04-30T06:15:39.137Z,91.30
2019-04-30T06:18:13.469Z,91.10
2019-04-30T06:20:35.739Z,90.70
2019-04-30T06:23:04.374Z,89.80
2019-04-30T06:25:45.720Z,90.20
2019-04-30T06:28:01.342Z,87.20
2019-04-30T06:30:29.905Z,88.60
2019-04-30T06:32:59.317Z,85.40
2019-04-30T06:35:26.608Z,78.20
2019-04-30T06:37:55.320Z,77.50
2019-04-30T06:40:23.693Z,75.60
2019-04-30T06:42:52.063Z,76.90
2019-04-30T06:45:20.404Z,75.30
2019-04-30T06:47:48.994Z,76.90
2019-04-30T06:50:19.218Z,78.30
2019-04-30T06:52:56.628Z,75.40
2019-04-30T06:55:14.744Z,72.40
2019-04-30T06:57:43.244Z,71.40
2019-04-30T07:00:11.610Z,64.70
2019-04-30T07:02:39.917Z,62.60
2019-04-30T07:05:10.036Z,63.90
2019-04-30T07:07:41.125Z,64.60
2019-04-30T07:10:16.976Z,62.90
2019-04-30T07:12:53.511Z,60.90
2019-04-30T07:15:22.067Z,59.70
2019-04-30T07:17:50.380Z,59.00
2019-04-30T07:20:19.302Z,61.60
2019-04-30T07:22:52.539Z,60.40
2019-04-30T07:25:16.379Z,61.90
2019-04-30T07:27:44.761Z,59.50
2019-04-30T07:30:13.241Z,56.00
2019-04-30T07:32:41.578Z,55.50
2019-04-30T07:35:09.919Z,54.80
2019-04-30T07:37:39.134Z,51.30
2019-04-30T07:40:09.159Z,52.00
2019-04-30T07:42:39.731Z,51.20
2019-04-30T07:45:05.821Z,53.30
2019-04-30T07:47:34.777Z,53.60
2019-04-30T07:50:03.191Z,52.20
2019-04-30T07:52:34.393Z,51.70
2019-04-30T07:55:00.615Z,53.70
2019-04-30T07:57:29.144Z,52.70
2019-04-30T07:59:56.914Z,52.60
2019-04-30T08:02:25.496Z,53.40
2019-04-30T08:05:00.341Z,50.50
2019-04-30T08:07:29.750Z,51.00
2019-04-30T08:09:59.009Z,52.50
2019-04-30T08:12:33.655Z,50.70
2019-04-30T08:14:54.611Z,50.90
2019-04-30T08:17:23.173Z,50.70
2019-04-30T08:19:51.510Z,51.60
2019-04-30T08:22:20.355Z,50.30
2019-04-30T08:24:49.163Z,50.20
2019-04-30T08:27:19.153Z,48.50
2019-04-30T08:29:45.796Z,48.40
2019-04-30T08:32:14.342Z,50.10
2019-04-30T08:34:42.663Z,51.50
2019-04-30T08:37:17.006Z,51.20
2019-04-30T08:39:39.842Z,49.10
2019-04-30T08:42:08.999Z,46.50
2019-04-30T08:44:39.508Z,45.90
2019-04-30T08:47:06.377Z,49.30
2019-04-30T08:49:35.726Z,46.80
2019-04-30T08:52:04.172Z,46.60
2019-04-30T08:54:34.656Z,48.20
2019-04-30T08:57:01.060Z,51.00
2019-04-30T08:59:29.627Z,45.40
2019-04-30T09:02:00.046Z,42.30
2019-04-30T09:04:28.960Z,45.90
2019-04-30T09:06:55.634Z,44.50
2019-04-30T09:09:24.171Z,43.40
2019-04-30T09:11:55.640Z,45.80
2019-04-30T09:14:22.749Z,46.40
2019-04-30T09:16:51.343Z,44.40
2019-04-30T09:19:21.211Z,46.80
2019-04-30T09:21:48.886Z,43.00
2019-04-30T09:24:16.496Z,42.70
2019-04-30T09:26:44.830Z,44.20
2019-04-30T09:29:13.616Z,43.50
2019-04-30T09:31:42.003Z,43.30
2019-04-30T09:34:17.194Z,42.10
2019-04-30T09:36:39.668Z,43.60
2019-04-30T09:39:08.939Z,44.60
2019-04-30T09:41:37.039Z,44.70
2019-04-30T09:44:05.896Z,44.60
2019-04-30T09:46:34.721Z,43.00
2019-04-30T09:49:03.114Z,41.50
2019-04-30T09:51:32.351Z,41.30
2019-04-30T09:54:03.191Z,41.50
2019-04-30T09:56:29.442Z,40.70
2019-04-30T09:58:59.275Z,41.40
2019-04-30T10:01:26.451Z,42.50
2019-04-30T10:03:55.134Z,44.40
2019-04-30T10:06:36.049Z,44.60
2019-04-30T10:08:52.186Z,45.20
2019-04-30T10:11:42.149Z,43.40
2019-04-30T10:14:10.480Z,42.30
2019-04-30T10:16:43.508Z,42.00
2019-04-30T10:19:14.889Z,41.50
2019-04-30T10:21:40.432Z,43.60
2019-04-30T10:24:15.327Z,42.60
2019-04-30T10:26:37.941Z,43.40
2019-04-30T10:29:06.299Z,44.90
2019-04-30T10:31:35.166Z,44.20
2019-04-30T10:34:03.502Z,43.30
2019-04-30T10:36:31.933Z,40.10
2019-04-30T10:39:00.638Z,38.40
2019-04-30T10:41:29.458Z,39.00
2019-04-30T10:43:59.145Z,40.50
2019-04-30T10:46:26.806Z,40.60
2019-04-30T10:48:55.330Z,41.50
2019-04-30T10:51:23.691Z,44.10
2019-04-30T10:53:52.410Z,41.10
2019-04-30T10:56:20.740Z,40.50
2019-04-30T10:58:49.121Z,42.60
2019-04-30T11:01:19.274Z,42.80
2019-04-30T11:03:46.501Z,44.00
2019-04-30T11:06:15.015Z,42.40
2019-04-30T11:08:43.738Z,44.60
2019-04-30T11:11:12.273Z,44.50
2019-04-30T11:13:40.593Z,45.90
2019-04-30T11:16:13.241Z,47.10
2019-04-30T11:18:38.257Z,49.10
2019-04-30T11:21:06.640Z,67.90
2019-04-30T11:23:35.386Z,67.30
2019-04-30T11:26:04.136Z,69.80
2019-04-30T11:28:32.430Z,71.30
2019-04-30T11:31:10.117Z,83.30
2019-04-30T11:33:38.696Z,94.30
2019-04-30T11:36:06.846Z,99.90
2019-04-30T11:38:35.636Z,99.90
2019-04-30T11:41:03.999Z,99.90
2019-04-30T11:43:32.397Z,99.90
2019-04-30T11:46:11.213Z,99.90
2019-04-30T11:48:39.600Z,99.90
2019-04-30T11:51:09.475Z,99.90
2019-04-30T11:53:38.982Z,99.90
2019-04-30T11:56:05.951Z,99.90
2019-04-30T11:58:34.706Z,99.90
2019-04-30T12:01:03.630Z,99.90
2019-04-30T12:03:32.280Z,99.90
2019-04-30T12:06:00.671Z,99.90
2019-04-30T12:08:31.079Z,99.90
2019-04-30T12:11:05.261Z,99.90
2019-04-30T12:13:34.284Z,99.90
2019-04-30T12:16:02.625Z,99.90
2019-04-30T12:18:30.961Z,99.90
2019-04-30T12:20:59.867Z,99.90
2019-04-30T12:23:28.246Z,99.90
2019-04-30T12:25:56.572Z,99.90
2019-04-30T12:28:27.323Z,99.90
2019-04-30T12:30:54.128Z,99.90
2019-04-30T12:33:22.468Z,99.90
2019-04-30T12:35:51.458Z,99.90
2019-04-30T12:38:20.728Z,99.90
2019-04-30T12:40:49.287Z,99.90
2019-04-30T12:43:17.959Z,99.90
2019-04-30T12:45:46.407Z,99.90
2019-04-30T12:48:25.891Z,99.90
2019-04-30T12:51:05.387Z,99.90
2019-04-30T12:53:38.114Z,99.90
2019-04-30T12:57:11.990Z,99.90
2019-04-30T12:59:40.613Z,99.90
2019-04-30T13:02:09.185Z,99.90
2019-04-30T13:04:39.214Z,99.90
2019-04-30T13:07:06.798Z,99.90
2019-04-30T13:09:35.170Z,99.90
2019-04-30T13:12:03.991Z,99.90
2019-04-30T13:14:33.523Z,99.90
2019-04-30T13:17:00.726Z,99.90
2019-04-30T13:19:29.625Z,99.90
2019-04-30T13:21:58.722Z,99.90
2019-04-30T13:24:26.693Z,99.90
2019-04-30T13:26:54.993Z,99.90
2019-04-30T13:29:27.671Z,99.90
2019-04-30T13:31:55.966Z,99.90
2019-04-30T13:35:01.240Z,99.90
2019-04-30T13:37:33.986Z,99.90
2019-04-30T13:40:07.417Z,99.90
2019-04-30T13:42:39.445Z,99.90
2019-04-30T13:45:07.990Z,99.90
2019-04-30T13:47:36.342Z,99.90
2019-04-30T13:50:05.104Z,99.90
2019-04-30T13:52:33.516Z,99.90
2019-04-30T13:55:02.070Z,99.70
2019-04-30T13:57:30.606Z,99.90
2019-04-30T13:59:58.923Z,99.90
2019-04-30T14:02:29.433Z,99.90
2019-04-30T14:05:03.096Z,99.90
2019-04-30T14:07:42.952Z,99.90
2019-04-30T14:10:11.313Z,99.90
2019-04-30T14:12:43.287Z,99.90
2019-04-30T14:15:12.558Z,99.90
2019-04-30T14:17:40.958Z,99.90
2019-04-30T14:20:09.472Z,99.90
2019-04-30T14:22:38.319Z,99.90
2019-04-30T14:25:06.831Z,99.90
2019-04-30T14:27:35.160Z,99.90
2019-04-30T14:30:04.376Z,99.90
2019-04-30T14:32:32.721Z,99.90
2019-04-30T14:35:01.054Z,99.90
2019-04-30T14:37:31.824Z,99.90
2019-04-30T14:39:59.473Z,99.90
2019-04-30T14:42:27.881Z,99.90
2019-04-30T14:45:00.598Z,99.90
2019-04-30T14:47:33.428Z,99.90
2019-04-30T14:50:09.920Z,99.90
2019-04-30T14:52:41.195Z,99.90
2019-04-30T14:55:19.740Z,99.80
2019-04-30T14:57:53.292Z,99.90
2019-04-30T15:01:29.208Z,99.90
2019-04-30T15:03:56.226Z,99.90
2019-04-30T15:06:24.795Z,99.90
2019-04-30T15:08:53.256Z,99.90
2019-04-30T15:11:21.660Z,99.90
2019-04-30T15:13:49.958Z,99.90
2019-04-30T15:16:18.699Z,99.90
2019-04-30T15:18:47.035Z,99.90
2019-04-30T15:21:15.677Z,99.90
2019-04-30T15:23:58.729Z,99.90
2019-04-30T15:26:25.016Z,99.90
2019-04-30T15:28:50.982Z,99.90
2019-04-30T15:31:20.330Z,99.90
2019-04-30T15:34:02.200Z,99.90
2019-04-30T15:36:21.556Z,99.90
2019-04-30T15:39:03.483Z,99.90
2019-04-30T15:41:32.270Z,99.90
2019-04-30T15:44:00.657Z,99.90
2019-04-30T15:46:29.184Z,99.90
2019-04-30T15:48:57.887Z,99.90
2019-04-30T15:51:26.240Z,99.90
2019-04-30T15:53:54.518Z,99.90
2019-04-30T15:56:34.453Z,99.90
2019-04-30T15:58:58.821Z,99.90
2019-04-30T16:01:25.746Z,99.90
2019-04-30T16:03:54.401Z,99.90
2019-04-30T16:06:22.805Z,99.90
2019-04-30T16:08:54.872Z,99.90
2019-04-30T16:11:45.723Z,99.90
2019-04-30T16:14:29.589Z,99.90
2019-04-30T16:17:03.921Z,99.90
2019-04-30T16:19:32.616Z,99.90
2019-04-30T16:22:00.940Z,99.90
2019-04-30T16:24:29.354Z,99.90
2019-04-30T16:26:59.351Z,99.90
2019-04-30T16:29:26.305Z,99.90
2019-04-30T16:31:55.076Z,99.90
2019-04-30T16:34:23.383Z,99.90
2019-04-30T16:36:51.831Z,99.90
2019-04-30T16:39:20.157Z,99.90
2019-04-30T16:41:49.516Z,99.90
2019-04-30T16:44:16.984Z,99.90
2019-04-30T16:46:45.731Z,99.90
2019-04-30T16:49:14.290Z,99.90
2019-04-30T16:51:42.886Z,99.90
2019-04-30T16:54:11.476Z,99.90
2019-04-30T16:56:39.818Z,99.90
2019-04-30T16:59:08.483Z,99.90
2019-04-30T17:01:37.303Z,99.90
2019-04-30T17:04:10.996Z,99.90
2019-04-30T17:06:40.920Z,99.90
2019-04-30T17:09:13.912Z,99.90
2019-04-30T17:11:49.005Z,99.90
2019-04-30T17:14:16.786Z,99.90
2019-04-30T17:16:45.142Z,99.90
2019-04-30T17:19:13.498Z,99.90
2019-04-30T17:21:41.938Z,99.90
2019-04-30T17:24:10.335Z,99.90
2019-04-30T17:26:39.237Z,99.90
2019-04-30T17:29:07.181Z,99.90
2019-04-30T17:31:35.595Z,99.90
2019-04-30T17:34:04.298Z,99.90
2019-04-30T17:36:32.598Z,99.90
2019-04-30T17:39:00.937Z,99.90
2019-04-30T17:41:29.419Z,99.90
2019-04-30T17:43:58.991Z,99.90
2019-04-30T17:46:28.471Z,99.90
2019-04-30T17:48:55.321Z,99.90
2019-04-30T17:51:23.780Z,99.90
2019-04-30T17:53:58.761Z,99.90
2019-04-30T17:56:26.186Z,99.90
2019-04-30T17:58:54.669Z,99.90
2019-04-30T18:01:23.507Z,99.90
2019-04-30T18:03:51.852Z,99.90
2019-04-30T18:06:20.335Z,99.90
2019-04-30T18:08:49.099Z,99.90
2019-04-30T18:11:19.913Z,99.90
2019-04-30T18:13:45.846Z,99.90
2019-04-30T18:16:14.399Z,99.90
2019-04-30T18:19:02.269Z,99.90
2019-04-30T18:21:38.358Z,99.90
2019-04-30T18:24:14.861Z,99.90
2019-04-30T18:26:48.600Z,99.90
2019-04-30T18:29:16.939Z,99.90
2019-04-30T18:31:45.275Z,99.90
2019-04-30T18:34:14.039Z,99.90
2019-04-30T18:36:42.531Z,99.90
2019-04-30T18:39:11.171Z,99.90
2019-04-30T18:41:40.046Z,99.90
2019-04-30T18:44:09.482Z,99.50
2019-04-30T18:46:36.856Z,99.90
2019-04-30T18:49:05.398Z,99.90
2019-04-30T18:51:39.518Z,99.90
2019-04-30T18:54:02.224Z,99.90
2019-04-30T18:56:30.976Z,99.90
2019-04-30T18:58:59.428Z,99.90
2019-04-30T19:01:27.801Z,99.90
2019-04-30T19:03:58.457Z,99.90
2019-04-30T19:06:26.193Z,99.90
2019-04-30T19:09:00.209Z,99.90
2019-04-30T19:11:34.472Z,99.90
2019-04-30T19:14:09.394Z,99.90
2019-04-30T19:17:49.726Z,99.90
2019-04-30T19:20:25.157Z,99.90
2019-04-30T19:22:53.536Z,99.90
2019-04-30T19:25:21.870Z,99.90
2019-04-30T19:27:50.568Z,99.90
2019-04-30T19:30:19.387Z,99.90
2019-04-30T19:32:49.004Z,99.90
2019-04-30T19:35:16.043Z,99.90
2019-04-30T19:37:44.362Z,99.90
2019-04-30T19:40:12.925Z,99.90
2019-04-30T19:42:41.917Z,99.90
2019-04-30T19:45:12.484Z,99.90
2019-04-30T19:47:39.145Z,99.90
2019-04-30T19:50:09.389Z,99.90
2019-04-30T19:52:36.367Z,99.90
2019-04-30T19:55:05.022Z,99.90
2019-04-30T19:57:34.026Z,99.90
2019-04-30T20:00:02.593Z,99.90
2019-04-30T20:02:30.924Z,99.90
2019-04-30T20:05:01.253Z,99.90
2019-04-30T20:07:29.134Z,99.90
2019-04-30T20:10:01.124Z,99.90
2019-04-30T20:12:25.459Z,99.90
2019-04-30T20:14:53.769Z,99.40
2019-04-30T20:17:22.056Z,98.70
2019-04-30T20:19:50.967Z,97.10
2019-04-30T20:22:19.837Z,99.40
2019-04-30T20:24:49.157Z,98.20
2019-04-30T20:27:16.169Z,95.70
2019-04-30T20:29:44.740Z,93.80
2019-04-30T20:32:13.100Z,92.70
2019-04-30T20:34:41.697Z,91.70
2019-04-30T20:37:10.184Z,93.50
2019-04-30T20:39:42.880Z,93.40
2019-04-30T20:42:11.237Z,93.10
2019-04-30T20:44:39.588Z,94.90
2019-04-30T20:47:08.947Z,94.00
2019-04-30T20:49:36.372Z,95.60
2019-04-30T20:52:04.942Z,92.80
2019-04-30T20:54:33.358Z,93.50
2019-04-30T20:57:01.985Z,94.20
2019-04-30T20:59:30.528Z,94.40
2019-04-30T21:01:59.071Z,94.00
2019-04-30T21:04:27.404Z,95.90
2019-04-30T21:06:55.705Z,94.60
2019-04-30T21:09:24.596Z,93.20
2019-04-30T21:11:52.942Z,94.20
2019-04-30T21:14:21.716Z,95.20
2019-04-30T21:16:50.400Z,94.30
2019-04-30T21:19:18.825Z,93.30
2019-04-30T21:21:47.308Z,93.00
2019-04-30T21:24:15.661Z,93.30
2019-04-30T21:26:44.218Z,93.30
2019-04-30T21:29:15.700Z,93.90
2019-04-30T21:31:54.963Z,93.70
2019-04-30T21:36:31.455Z,94.00
2019-04-30T21:39:00.038Z,94.10
2019-04-30T21:41:29.676Z,95.40
2019-04-30T21:43:57.004Z,96.20
2019-04-30T21:46:25.554Z,96.50
2019-04-30T21:48:53.879Z,97.00
2019-04-30T21:51:22.192Z,99.70
2019-04-30T21:53:50.502Z,99.90
2019-04-30T21:56:18.830Z,99.90
2019-04-30T21:58:47.545Z,99.90
2019-04-30T22:01:19.761Z,99.90
2019-04-30T22:03:48.230Z,99.90
2019-04-30T22:06:16.674Z,99.90
2019-04-30T22:08:46.028Z,99.90
2019-04-30T22:11:14.550Z,99.90
2019-04-30T22:13:43.241Z,99.90
2019-04-30T22:16:12.077Z,99.90
2019-04-30T22:18:40.371Z,99.90
2019-04-30T22:21:09.416Z,99.90
2019-04-30T22:23:38.131Z,99.90
2019-04-30T22:26:06.504Z,99.90
2019-04-30T22:28:34.883Z,99.90
2019-04-30T22:31:03.877Z,99.90
2019-04-30T22:33:32.778Z,99.90
2019-04-30T22:36:08.748Z,99.90
2019-04-30T22:38:39.167Z,99.90
2019-04-30T22:41:08.874Z,99.90
2019-04-30T22:43:36.212Z,99.90
2019-04-30T22:46:09.768Z,99.90
2019-04-30T22:48:36.615Z,99.90
2019-04-30T22:51:05.196Z,99.90
2019-04-30T22:53:33.717Z,99.90
2019-04-30T22:56:02.175Z,99.90
2019-04-30T22:58:31.083Z,99.90
2019-04-30T23:01:05.482Z,99.90
2019-04-30T23:03:33.990Z,99.90
2019-04-30T23:06:02.388Z,99.90
2019-04-30T23:08:30.842Z,99.90
2019-04-30T23:11:00.039Z,99.90
2019-04-30T23:13:28.618Z,99.90
2019-04-30T23:15:56.927Z,99.90
2019-04-30T23:18:25.785Z,99.90
2019-04-30T23:20:54.403Z,99.90
2019-04-30T23:23:22.794Z,99.90
2019-04-30T23:25:51.438Z,99.90
2019-04-30T23:28:19.884Z,99.90
2019-04-30T23:30:48.276Z,99.90
2019-04-30T23:33:17.126Z,99.90
2019-04-30T23:35:45.737Z,99.90
2019-04-30T23:38:14.213Z,99.90
2019-04-30T23:40:47.253Z,99.90
2019-04-30T23:43:15.630Z,99.90
2019-04-30T23:45:44.082Z,99.90
2019-04-30T23:48:13.076Z,99.90
2019-04-30T23:50:41.760Z,99.90
2019-04-30T23:53:10.334Z,99.90
2019-04-30T23:58:13.912Z,99.90
